Fort Qu'Appelle, Canada
Current Conditions -  °F | °C
As of 7:00 PM on Sunday 23 Nov 2014 (Local Time) from CYQR Reporting Station
Light Snow Light Snow  
Wind Chill: -2°   Ceiling: Unl
Heat Index: 10°   Visibility: 15mi
Dew Point:   Wind: 8mph
Humidity: 85%   Direction: 340°NNW
Pressure: 29.84"   Gusts: NA
Location:  50.77°N, 103.78°W
Report Text: CYQR 240100Z 34007KT 15SM -SN SCT080 M12/M14 A2984 RMK AC4 SLP149
Loading
Personal Weather Stations






























Interactive Weather Map New forecast layout! Learn more

10-Day Weather Forecast

Advertisements
Track Severe Weather on mobile